createdAt,value
2023-04-20T00:01:24.893Z,3.33
2023-04-20T00:03:52.019Z,3.30
2023-04-20T00:06:18.863Z,3.22
2023-04-20T00:08:45.583Z,2.17
2023-04-20T00:11:12.214Z,2.70
2023-04-20T00:13:38.882Z,2.72
2023-04-20T00:16:06.209Z,2.80
2023-04-20T00:18:32.885Z,2.08
2023-04-20T00:20:59.780Z,3.10
2023-04-20T00:23:26.428Z,2.40
2023-04-20T00:25:53.106Z,2.25
2023-04-20T00:28:19.727Z,2.53
2023-04-20T00:30:46.386Z,3.13
2023-04-20T00:33:13.118Z,2.38
2023-04-20T00:35:39.857Z,2.30
2023-04-20T00:38:06.620Z,2.45
2023-04-20T00:40:33.708Z,2.40
2023-04-20T00:43:12.787Z,2.85
2023-04-20T00:45:39.588Z,1.95
2023-04-20T00:48:07.331Z,2.40
2023-04-20T00:50:35.138Z,2.63
2023-04-20T00:53:02.545Z,3.05
2023-04-20T00:55:30.464Z,2.85
2023-04-20T00:57:57.342Z,2.40
2023-04-20T01:00:27.649Z,3.08
2023-04-20T01:02:54.535Z,2.20
2023-04-20T01:05:21.946Z,1.90
2023-04-20T01:07:49.617Z,2.45
2023-04-20T01:10:16.428Z,2.28
2023-04-20T01:12:43.195Z,2.53
2023-04-20T01:15:10.337Z,2.67
2023-04-20T01:17:39.758Z,2.70
2023-04-20T01:20:14.735Z,2.85
2023-04-20T01:22:49.043Z,2.88
2023-04-20T01:25:16.428Z,2.25
2023-04-20T01:27:43.257Z,2.75
2023-04-20T01:30:10.957Z,2.55
2023-04-20T01:32:38.025Z,2.25
2023-04-20T01:35:05.956Z,2.03
2023-04-20T01:37:32.930Z,2.30
2023-04-20T01:39:59.727Z,2.42
2023-04-20T01:42:26.657Z,2.25
2023-04-20T01:44:53.265Z,2.13
2023-04-20T01:47:19.876Z,2.53
2023-04-20T01:49:46.542Z,2.47
2023-04-20T01:52:13.271Z,1.77
2023-04-20T01:54:40.089Z,3.00
2023-04-20T01:57:06.822Z,2.40
2023-04-20T01:59:33.481Z,2.75
2023-04-20T02:02:00.212Z,2.85
2023-04-20T02:04:27.064Z,2.60
2023-04-20T02:06:53.818Z,1.70
2023-04-20T02:09:20.846Z,2.83
2023-04-20T02:11:47.462Z,3.00
2023-04-20T02:14:14.175Z,2.72
2023-04-20T02:16:42.781Z,2.40
2023-04-20T02:19:10.153Z,2.20
2023-04-20T02:21:36.777Z,2.40
2023-04-20T02:24:06.453Z,2.03
2023-04-20T02:26:33.194Z,2.92
2023-04-20T02:28:59.892Z,2.13
2023-04-20T02:31:26.538Z,2.45
2023-04-20T02:33:53.279Z,1.88
2023-04-20T02:36:19.901Z,2.50
2023-04-20T02:38:46.584Z,2.50
2023-04-20T02:41:13.239Z,3.05
2023-04-20T02:43:40.554Z,2.83
2023-04-20T02:46:07.788Z,2.00
2023-04-20T02:48:34.706Z,2.45
2023-04-20T02:51:01.349Z,2.55
2023-04-20T02:53:27.991Z,2.65
2023-04-20T02:55:54.640Z,3.60
2023-04-20T02:58:21.305Z,3.40
2023-04-20T03:00:48.058Z,2.17
2023-04-20T03:03:15.253Z,1.63
2023-04-20T03:05:42.550Z,2.38
2023-04-20T03:08:09.336Z,2.88
2023-04-20T03:10:36.133Z,2.15
2023-04-20T03:13:02.783Z,1.98
2023-04-20T03:15:29.493Z,1.83
2023-04-20T03:17:56.211Z,2.53
2023-04-20T03:20:23.237Z,3.10
2023-04-20T03:22:49.896Z,2.25
2023-04-20T03:25:16.840Z,2.13
2023-04-20T03:27:45.768Z,2.95
2023-04-20T03:30:13.187Z,2.95
2023-04-20T03:32:41.927Z,2.80
2023-04-20T03:35:09.516Z,2.38
2023-04-20T03:37:39.303Z,2.03
2023-04-20T03:40:08.361Z,2.70
2023-04-20T03:42:35.178Z,2.70
2023-04-20T03:45:01.918Z,2.80
2023-04-20T03:47:28.621Z,2.85
2023-04-20T03:49:55.334Z,2.00
2023-04-20T03:52:22.021Z,2.17
2023-04-20T03:54:48.697Z,2.35
2023-04-20T03:57:15.431Z,2.50
2023-04-20T03:59:42.204Z,1.88
2023-04-20T04:02:11.077Z,1.73
2023-04-20T04:04:38.025Z,1.90
2023-04-20T04:07:05.417Z,2.10
2023-04-20T04:09:32.259Z,2.47
2023-04-20T04:11:58.984Z,2.28
2023-04-20T04:14:25.785Z,1.98
2023-04-20T04:16:52.455Z,2.28
2023-04-20T04:19:19.360Z,2.22
2023-04-20T04:21:46.204Z,2.20
2023-04-20T04:24:12.953Z,2.45
2023-04-20T04:26:39.686Z,2.10
2023-04-20T04:29:06.638Z,2.63
2023-04-20T04:31:33.899Z,1.95
2023-04-20T04:34:01.242Z,2.30
2023-04-20T04:36:27.957Z,2.20
2023-04-20T04:38:54.574Z,2.22
2023-04-20T04:41:21.546Z,2.75
2023-04-20T04:43:48.186Z,1.90
2023-04-20T04:46:14.845Z,2.50
2023-04-20T04:48:42.470Z,2.53
2023-04-20T04:51:09.956Z,2.42
2023-04-20T04:53:37.263Z,2.95
2023-04-20T04:56:04.632Z,2.42
2023-04-20T04:58:31.427Z,2.40
2023-04-20T05:00:58.209Z,2.58
2023-04-20T05:03:25.102Z,2.45
2023-04-20T05:05:52.247Z,2.50
2023-04-20T05:08:19.093Z,2.47
2023-04-20T05:10:45.859Z,2.75
2023-04-20T05:13:12.673Z,2.22
2023-04-20T05:15:39.426Z,1.90
2023-04-20T05:18:06.529Z,2.47
2023-04-20T05:20:33.485Z,1.98
2023-04-20T05:23:00.252Z,2.90
2023-04-20T05:25:26.946Z,1.88
2023-04-20T05:27:53.634Z,4.00
2023-04-20T05:30:22.083Z,4.07
2023-04-20T05:32:51.830Z,3.15
2023-04-20T05:35:19.329Z,3.10
2023-04-20T05:37:47.681Z,2.92
2023-04-20T05:40:15.511Z,2.50
2023-04-20T05:42:42.256Z,3.10
2023-04-20T05:45:09.736Z,2.83
2023-04-20T05:47:36.485Z,2.85
2023-04-20T05:50:03.573Z,2.70
2023-04-20T05:52:30.360Z,3.15
2023-04-20T05:54:56.993Z,3.03
2023-04-20T05:57:24.704Z,3.08
2023-04-20T05:59:51.698Z,3.50
2023-04-20T06:02:18.433Z,3.08
2023-04-20T06:04:45.653Z,2.67
2023-04-20T06:07:12.432Z,3.13
2023-04-20T06:09:39.128Z,3.90
2023-04-20T06:12:06.035Z,2.38
2023-04-20T06:14:32.727Z,2.70
2023-04-20T06:16:59.413Z,2.78
2023-04-20T06:19:26.467Z,2.58
2023-04-20T06:21:53.246Z,2.70
2023-04-20T06:24:19.873Z,2.40
2023-04-20T06:26:46.512Z,2.53
2023-04-20T06:29:13.151Z,2.70
2023-04-20T06:31:39.857Z,2.40
2023-04-20T06:34:06.733Z,2.28
2023-04-20T06:36:33.644Z,2.38
2023-04-20T06:39:00.326Z,2.60
2023-04-20T06:41:27.061Z,1.92
2023-04-20T06:43:53.956Z,2.72
2023-04-20T06:46:20.700Z,1.70
2023-04-20T06:48:47.467Z,1.85
2023-04-20T06:51:14.326Z,1.70
2023-04-20T06:53:41.057Z,2.17
2023-04-20T06:56:08.236Z,1.88
2023-04-20T06:58:34.920Z,2.10
2023-04-20T07:01:02.327Z,2.17
2023-04-20T07:03:29.169Z,2.05
2023-04-20T07:05:56.004Z,2.88
2023-04-20T07:08:22.704Z,1.92
2023-04-20T07:10:49.393Z,2.20
2023-04-20T07:13:16.234Z,1.80
2023-04-20T07:15:45.229Z,2.20
2023-04-20T07:18:12.276Z,1.88
2023-04-20T07:20:39.146Z,2.55
2023-04-20T07:23:05.860Z,3.08
2023-04-20T07:25:33.043Z,2.20
2023-04-20T07:27:59.993Z,1.58
2023-04-20T07:30:26.860Z,1.67
2023-04-20T07:32:53.617Z,2.13
2023-04-20T07:35:20.572Z,2.15
2023-04-20T07:37:47.644Z,2.40
2023-04-20T07:40:14.414Z,1.38
2023-04-20T07:42:41.313Z,1.80
2023-04-20T07:45:08.668Z,2.80
2023-04-20T07:47:36.235Z,2.22
2023-04-20T07:50:04.079Z,1.60
2023-04-20T07:52:30.822Z,1.45
2023-04-20T07:55:00.537Z,2.00
2023-04-20T07:57:28.681Z,1.52
2023-04-20T07:59:55.462Z,2.10
2023-04-20T08:02:22.350Z,2.25
2023-04-20T08:04:50.047Z,2.05
2023-04-20T08:07:17.633Z,2.13
2023-04-20T08:09:44.374Z,2.20
2023-04-20T08:12:11.115Z,2.10
2023-04-20T08:14:38.361Z,1.83
2023-04-20T08:17:05.154Z,1.80
2023-04-20T08:19:31.863Z,1.63
2023-04-20T08:21:59.019Z,1.70
2023-04-20T08:24:27.067Z,1.90
2023-04-20T08:26:53.827Z,1.88
2023-04-20T08:29:20.762Z,1.73
2023-04-20T08:31:49.324Z,2.25
2023-04-20T08:34:18.831Z,2.75
2023-04-20T08:36:46.486Z,2.17
2023-04-20T08:39:15.615Z,3.42
2023-04-20T08:41:42.284Z,3.15
2023-04-20T08:44:09.015Z,3.08
2023-04-20T08:46:36.177Z,1.83
2023-04-20T08:49:04.220Z,2.28
2023-04-20T08:51:33.940Z,2.33
2023-04-20T08:54:06.027Z,2.70
2023-04-20T08:56:37.145Z,3.15
2023-04-20T08:59:05.485Z,2.17
2023-04-20T09:01:35.523Z,2.63
2023-04-20T09:04:03.588Z,2.50
2023-04-20T09:06:31.616Z,1.77
2023-04-20T09:08:58.353Z,3.55
2023-04-20T09:11:26.747Z,2.72
2023-04-20T09:14:06.675Z,1.65
2023-04-20T09:16:34.922Z,2.63
2023-04-20T09:19:01.735Z,2.13
2023-04-20T09:21:28.967Z,2.15
2023-04-20T09:24:03.310Z,2.85
2023-04-20T09:26:35.716Z,2.47
2023-04-20T09:29:03.680Z,2.55
2023-04-20T09:31:30.531Z,2.05
2023-04-20T09:33:57.938Z,3.42
2023-04-20T09:36:26.247Z,2.17
2023-04-20T09:39:04.454Z,3.10
2023-04-20T09:41:32.796Z,2.00
2023-04-20T09:44:00.337Z,3.38
2023-04-20T09:46:30.116Z,3.25
2023-04-20T09:48:57.614Z,3.28
2023-04-20T09:51:27.825Z,2.75
2023-04-20T09:54:05.782Z,2.53
2023-04-20T09:56:34.772Z,3.25
2023-04-20T09:59:02.371Z,4.30
2023-04-20T10:01:34.873Z,3.38
2023-04-20T10:04:03.954Z,3.67
2023-04-20T10:06:33.373Z,4.45
2023-04-20T10:09:05.956Z,2.90
2023-04-20T10:11:51.741Z,3.35
2023-04-20T10:14:24.999Z,5.63
2023-04-20T10:17:11.711Z,3.35
2023-04-20T10:19:45.023Z,4.00
2023-04-20T10:22:14.254Z,4.00
2023-04-20T10:24:41.043Z,4.22
2023-04-20T10:27:20.819Z,5.15
2023-04-20T10:29:47.929Z,4.63
2023-04-20T10:32:28.490Z,4.32
2023-04-20T10:35:06.687Z,5.35
2023-04-20T10:37:33.846Z,3.00
2023-04-20T10:40:01.216Z,3.92
2023-04-20T10:42:29.746Z,3.72
2023-04-20T10:44:56.693Z,4.95
2023-04-20T10:47:31.489Z,1.77
2023-04-20T10:50:09.343Z,2.03
2023-04-20T10:52:37.423Z,3.75
2023-04-20T10:55:05.305Z,2.55
2023-04-20T10:57:32.048Z,2.92
2023-04-20T10:59:58.635Z,3.13
2023-04-20T11:02:25.690Z,3.10
2023-04-20T11:04:53.377Z,3.22
2023-04-20T11:07:21.022Z,2.40
2023-04-20T11:09:55.263Z,2.85
2023-04-20T11:12:21.955Z,2.15
2023-04-20T11:14:54.697Z,2.45
2023-04-20T11:17:32.850Z,2.90
2023-04-20T11:20:09.030Z,3.35
2023-04-20T11:22:35.689Z,3.15
2023-04-20T11:25:06.992Z,2.30
2023-04-20T11:27:34.564Z,1.88
2023-04-20T11:30:05.800Z,4.10
2023-04-20T11:32:34.139Z,2.80
2023-04-20T11:35:09.413Z,3.20
2023-04-20T11:37:51.332Z,3.88
2023-04-20T11:40:18.239Z,3.00
2023-04-20T11:42:44.982Z,4.18
2023-04-20T11:45:11.723Z,3.22
2023-04-20T11:47:41.184Z,4.10
2023-04-20T11:50:09.284Z,2.75
2023-04-20T11:52:35.994Z,2.83
2023-04-20T11:55:02.720Z,3.30
2023-04-20T11:57:31.841Z,4.25
2023-04-20T11:59:58.476Z,2.42
2023-04-20T12:02:25.450Z,3.47
2023-04-20T12:04:52.325Z,4.10
2023-04-20T12:07:19.110Z,3.65
2023-04-20T12:09:45.687Z,4.30
2023-04-20T12:12:12.348Z,3.47
2023-04-20T12:14:38.993Z,4.15
2023-04-20T12:17:05.620Z,3.33
2023-04-20T12:19:32.469Z,4.10
2023-04-20T12:21:59.242Z,3.72
2023-04-20T12:24:26.290Z,3.58
2023-04-20T12:26:52.932Z,3.38
2023-04-20T12:29:19.933Z,3.28
2023-04-20T12:31:46.933Z,3.80
2023-04-20T12:34:13.627Z,3.83
2023-04-20T12:36:40.272Z,3.25
2023-04-20T12:39:07.202Z,4.10
2023-04-20T12:41:34.529Z,3.60
2023-04-20T12:44:02.777Z,4.25
2023-04-20T12:46:32.119Z,4.25
2023-04-20T12:48:58.770Z,3.70
2023-04-20T12:51:25.380Z,4.25
2023-04-20T12:53:52.060Z,3.97
2023-04-20T12:56:18.701Z,4.22
2023-04-20T12:58:45.590Z,2.92
2023-04-20T13:01:12.336Z,3.42
2023-04-20T13:03:39.394Z,5.30
2023-04-20T13:06:06.568Z,3.47
2023-04-20T13:08:33.560Z,4.35
2023-04-20T13:11:00.264Z,3.65
2023-04-20T13:13:27.033Z,3.90
2023-04-20T13:15:54.610Z,3.10
2023-04-20T13:18:21.932Z,4.15
2023-04-20T13:20:48.923Z,3.13
2023-04-20T13:23:15.571Z,2.72
2023-04-20T13:25:42.255Z,4.05
2023-04-20T13:28:08.960Z,5.30
2023-04-20T13:30:35.836Z,5.15
2023-04-20T13:33:02.623Z,4.75
2023-04-20T13:35:29.431Z,6.07
2023-04-20T13:37:58.159Z,5.53
2023-04-20T13:40:25.809Z,4.00
2023-04-20T13:42:52.414Z,4.07
2023-04-20T13:45:19.092Z,3.28
2023-04-20T13:47:45.923Z,4.85
2023-04-20T13:50:12.768Z,4.95
2023-04-20T13:52:39.570Z,4.13
2023-04-20T13:55:06.594Z,3.97
2023-04-20T13:57:33.420Z,6.57
2023-04-20T14:00:01.200Z,4.68
2023-04-20T14:02:29.405Z,6.05
2023-04-20T14:04:56.851Z,4.63
2023-04-20T14:07:23.866Z,5.13
2023-04-20T14:09:51.109Z,4.80
2023-04-20T14:12:17.855Z,4.97
2023-04-20T14:14:44.590Z,5.03
2023-04-20T14:17:11.682Z,4.82
2023-04-20T14:19:38.328Z,5.35
2023-04-20T14:22:04.936Z,4.00
2023-04-20T14:24:31.527Z,4.43
2023-04-20T14:26:59.504Z,4.00
2023-04-20T14:29:26.229Z,3.55
2023-04-20T14:31:52.963Z,3.95
2023-04-20T14:34:20.024Z,4.10
2023-04-20T14:36:46.898Z,6.75
2023-04-20T14:39:13.594Z,8.95
2023-04-20T14:41:40.238Z,6.60
2023-04-20T14:44:06.973Z,4.80
2023-04-20T14:46:33.725Z,3.42
2023-04-20T14:49:00.420Z,4.18
2023-04-20T14:51:27.320Z,3.30
2023-04-20T14:53:54.224Z,4.32
2023-04-20T14:56:20.874Z,5.32
2023-04-20T14:58:48.050Z,3.45
2023-04-20T15:01:15.040Z,3.47
2023-04-20T15:03:41.837Z,3.75
2023-04-20T15:06:08.996Z,4.07
2023-04-20T15:08:36.158Z,4.75
2023-04-20T15:11:05.114Z,3.72
2023-04-20T15:13:31.985Z,3.90
2023-04-20T15:15:58.736Z,3.97
2023-04-20T15:18:25.533Z,4.30
2023-04-20T15:20:54.966Z,4.75
2023-04-20T15:23:21.756Z,5.07
2023-04-20T15:25:48.453Z,3.90
2023-04-20T15:28:15.424Z,3.28
2023-04-20T15:30:42.472Z,3.83
2023-04-20T15:33:09.247Z,4.40
2023-04-20T15:35:35.880Z,3.97
2023-04-20T15:38:03.399Z,4.63
2023-04-20T15:40:30.327Z,4.50
2023-04-20T15:42:57.020Z,3.40
2023-04-20T15:45:23.872Z,3.20
2023-04-20T15:47:51.480Z,4.10
2023-04-20T15:50:18.587Z,4.13
2023-04-20T15:52:45.862Z,3.60
2023-04-20T15:55:12.675Z,4.88
2023-04-20T15:57:39.371Z,3.38
2023-04-20T16:00:07.879Z,2.97
2023-04-20T16:02:34.811Z,4.25
2023-04-20T16:05:02.135Z,3.70
2023-04-20T16:07:29.112Z,4.80
2023-04-20T16:09:55.866Z,3.83
2023-04-20T16:12:22.490Z,3.80
2023-04-20T16:14:49.479Z,4.53
2023-04-20T16:17:17.012Z,4.30
2023-04-20T16:19:43.611Z,3.50
2023-04-20T16:22:10.308Z,3.90
2023-04-20T16:24:36.882Z,14.63
2023-04-20T16:27:03.805Z,24.15
2023-04-20T16:29:30.433Z,6.05
2023-04-20T16:31:57.050Z,9.40
2023-04-20T16:34:24.536Z,6.45
2023-04-20T16:36:51.231Z,6.10
2023-04-20T16:39:18.660Z,5.07
2023-04-20T16:41:45.610Z,5.30
2023-04-20T16:44:16.318Z,4.90
2023-04-20T16:46:44.010Z,4.82
2023-04-20T16:49:10.777Z,4.95
2023-04-20T16:51:37.374Z,5.55
2023-04-20T16:54:04.245Z,6.38
2023-04-20T16:56:30.802Z,4.80
2023-04-20T16:58:57.447Z,4.40
2023-04-20T17:01:24.156Z,4.63
2023-04-20T17:03:51.427Z,4.90
2023-04-20T17:06:18.169Z,4.38
2023-04-20T17:08:44.827Z,5.03
2023-04-20T17:11:11.470Z,3.50
2023-04-20T17:13:38.293Z,3.65
2023-04-20T17:16:05.268Z,5.55
2023-04-20T17:18:34.232Z,6.40
2023-04-20T17:21:02.179Z,4.35
2023-04-20T17:23:29.695Z,4.53
2023-04-20T17:25:56.313Z,4.90
2023-04-20T17:28:22.908Z,4.45
2023-04-20T17:30:49.469Z,4.60
2023-04-20T17:33:16.242Z,4.13
2023-04-20T17:35:43.195Z,3.83
2023-04-20T17:38:09.755Z,4.57
2023-04-20T17:40:36.386Z,4.53
2023-04-20T17:43:03.132Z,3.35
2023-04-20T17:45:29.795Z,3.90
2023-04-20T17:47:56.498Z,4.28
2023-04-20T17:50:23.415Z,3.47
2023-04-20T17:52:51.553Z,4.15
2023-04-20T17:55:18.350Z,4.30
2023-04-20T17:57:44.993Z,3.35
2023-04-20T18:00:12.161Z,3.67
2023-04-20T18:02:39.755Z,4.30
2023-04-20T18:05:07.104Z,4.20
2023-04-20T18:07:33.885Z,4.38
2023-04-20T18:10:00.821Z,3.70
2023-04-20T18:12:27.471Z,4.65
2023-04-20T18:14:54.106Z,3.92
2023-04-20T18:17:20.757Z,4.40
2023-04-20T18:19:47.513Z,5.00
2023-04-20T18:22:14.428Z,3.63
2023-04-20T18:24:41.013Z,4.47
2023-04-20T18:27:07.635Z,4.75
2023-04-20T18:29:34.553Z,5.07
2023-04-20T18:32:01.526Z,4.85
2023-04-20T18:34:31.149Z,5.70
2023-04-20T18:36:58.306Z,4.85
2023-04-20T18:39:25.576Z,3.90
2023-04-20T18:41:52.204Z,4.95
2023-04-20T18:44:19.031Z,5.38
2023-04-20T18:46:46.571Z,3.08
2023-04-20T18:49:13.354Z,4.45
2023-04-20T18:51:40.260Z,3.25
2023-04-20T18:54:07.076Z,3.20
2023-04-20T18:56:33.831Z,4.70
2023-04-20T18:59:01.532Z,3.78
2023-04-20T19:01:28.661Z,3.55
2023-04-20T19:03:55.936Z,4.00
2023-04-20T19:06:22.781Z,3.00
2023-04-20T19:08:52.379Z,3.03
2023-04-20T19:11:18.990Z,2.92
2023-04-20T19:13:45.738Z,3.58
2023-04-20T19:16:13.195Z,3.13
2023-04-20T19:18:40.066Z,3.42
2023-04-20T19:21:07.026Z,4.57
2023-04-20T19:23:35.751Z,4.50
2023-04-20T19:26:02.798Z,3.08
2023-04-20T19:28:29.414Z,3.72
2023-04-20T19:30:57.123Z,3.92
2023-04-20T19:33:23.815Z,6.07
2023-04-20T19:35:53.536Z,4.10
2023-04-20T19:38:21.386Z,4.97
2023-04-20T19:40:48.932Z,3.03
2023-04-20T19:43:17.013Z,4.72
2023-04-20T19:45:43.719Z,4.18
2023-04-20T19:48:10.543Z,4.50
2023-04-20T19:50:37.169Z,4.57
2023-04-20T19:53:04.032Z,3.15
2023-04-20T19:55:30.713Z,3.53
2023-04-20T19:57:57.293Z,5.20
2023-04-20T20:00:23.913Z,5.22
2023-04-20T20:02:50.574Z,6.18
2023-04-20T20:05:17.364Z,5.30
2023-04-20T20:07:44.023Z,5.45
2023-04-20T20:10:10.697Z,6.50
2023-04-20T20:12:37.688Z,3.83
2023-04-20T20:15:04.887Z,6.25
2023-04-20T20:17:31.737Z,5.35
2023-04-20T20:19:58.740Z,3.88
2023-04-20T20:22:25.499Z,5.05
2023-04-20T20:24:54.585Z,4.00
2023-04-20T20:27:21.634Z,5.22
2023-04-20T20:29:48.847Z,4.88
2023-04-20T20:32:15.931Z,4.60
2023-04-20T20:34:42.970Z,4.18
2023-04-20T20:37:10.567Z,4.20
2023-04-20T20:39:37.866Z,3.95
2023-04-20T20:42:05.906Z,4.93
2023-04-20T20:44:34.636Z,6.22
2023-04-20T20:47:01.423Z,6.38
2023-04-20T20:49:28.305Z,4.25
2023-04-20T20:51:55.058Z,5.00
2023-04-20T20:54:22.125Z,3.80
2023-04-20T20:56:48.922Z,5.03
2023-04-20T20:59:15.667Z,5.50
2023-04-20T21:01:42.728Z,4.53
2023-04-20T21:04:09.806Z,6.05
2023-04-20T21:06:36.630Z,4.90
2023-04-20T21:09:04.374Z,6.90
2023-04-20T21:11:31.235Z,6.95
2023-04-20T21:14:02.143Z,6.88
2023-04-20T21:16:29.309Z,4.63
2023-04-20T21:18:56.240Z,4.40
2023-04-20T21:21:23.118Z,6.63
2023-04-20T21:23:50.643Z,6.15
2023-04-20T21:26:17.479Z,6.03
2023-04-20T21:28:44.616Z,4.07
2023-04-20T21:31:11.356Z,5.85
2023-04-20T21:33:38.480Z,5.18
2023-04-20T21:36:05.656Z,7.50
2023-04-20T21:38:32.340Z,5.57
2023-04-20T21:40:59.108Z,5.93
2023-04-20T21:43:25.828Z,6.70
2023-04-20T21:45:52.971Z,5.22
2023-04-20T21:48:21.550Z,5.32
2023-04-20T21:50:48.221Z,5.85
2023-04-20T21:53:14.983Z,6.43
2023-04-20T21:55:41.632Z,6.43
2023-04-20T21:58:08.452Z,6.95
2023-04-20T22:00:35.329Z,6.53
2023-04-20T22:03:02.098Z,5.55
2023-04-20T22:05:29.443Z,4.82
2023-04-20T22:07:59.157Z,6.53
2023-04-20T22:10:26.411Z,7.05
2023-04-20T22:12:53.430Z,5.75
2023-04-20T22:15:22.326Z,5.07
2023-04-20T22:17:51.431Z,5.90
2023-04-20T22:20:19.540Z,6.45
2023-04-20T22:22:46.899Z,6.05
2023-04-20T22:25:13.588Z,5.22
2023-04-20T22:27:40.339Z,5.85
2023-04-20T22:30:09.497Z,5.10
2023-04-20T22:32:37.342Z,6.70
2023-04-20T22:35:06.481Z,6.68
2023-04-20T22:37:33.103Z,7.60
2023-04-20T22:39:59.755Z,7.00
2023-04-20T22:42:26.551Z,5.43
2023-04-20T22:44:53.257Z,7.15
2023-04-20T22:47:21.136Z,5.80
2023-04-20T22:49:49.132Z,6.65
2023-04-20T22:52:16.061Z,6.32
2023-04-20T22:54:47.972Z,5.55
2023-04-20T22:57:15.780Z,6.10
2023-04-20T22:59:42.608Z,6.28
2023-04-20T23:02:12.208Z,6.93
2023-04-20T23:04:39.499Z,7.10
2023-04-20T23:07:06.974Z,6.03
2023-04-20T23:09:36.792Z,6.38
2023-04-20T23:12:03.464Z,7.20
2023-04-20T23:14:30.208Z,6.22
2023-04-20T23:16:56.935Z,6.03
2023-04-20T23:19:25.831Z,6.68
2023-04-20T23:21:52.371Z,5.13
2023-04-20T23:24:19.014Z,6.40
2023-04-20T23:26:45.768Z,7.50
2023-04-20T23:29:12.400Z,5.90
2023-04-20T23:31:39.146Z,6.05
2023-04-20T23:34:05.991Z,6.30
2023-04-20T23:36:32.935Z,5.90
2023-04-20T23:38:59.517Z,6.57
2023-04-20T23:41:26.334Z,7.40
2023-04-20T23:43:53.070Z,8.48
2023-04-20T23:46:19.847Z,6.05
2023-04-20T23:48:46.455Z,5.97
2023-04-20T23:51:13.174Z,5.88
2023-04-20T23:53:40.059Z,8.02
2023-04-20T23:56:07.129Z,6.03
2023-04-20T23:58:33.886Z,7.15
